Impacts METAR Board
IDs:

KRWV - Caldwell Muni, TX, US

Updated at: 1300 UTC 13 Dec 2019
Potential Impact None Slight Moderate High
Time 13/01Z 13/02Z 13/03Z 13/04Z 13/05Z 13/06Z 13/07Z 13/08Z 13/09Z 13/10Z 13/11Z 13/12Z 13/13Z
Temp52 50 48 49 49 45 46 47 47 49 50 53 54
Dewpt47 47 46 46 47 45 45 47 47
Altim30.12 30.11 30.08 30.08 30.08 30.07 30.04 30.03 30.02 30.01 29.98 29.97 29.97
VIS10 10 10 10 10 10 10 10 5 0.25 0.25 0.75 0.25
CIG-- -- -- -- -- -- -- -- 7 3 3 3 3
CoverSCTCLRCLRCLRCLRCLRSCTSCTOVCOVCOVCOVCOVC
FltCatVFRVFRVFRVFRVFRVFRVFRVFRIFRLIFRLIFRLIFRLIFR
WX----------------BRFGFGBRFG
WDir01601601900250230250250240180210200
WSpd0 4 7 4 0 7 6 8 9 6 5 7 8
WGst-- -- -- -- -- -- -- -- -- -- -- -- --
Raw hourly METARs
KRWV 130055Z AUTO 00000KT 10SM SCT028 11/08 A3012 RMK AO2 T01100083
KRWV 130155Z AUTO 16004KT 10SM CLR 10/08 A3011 RMK AO2 T00980083
KRWV 130255Z AUTO 16007KT 10SM CLR 09/08 A3008 RMK AO2 T00900079
KRWV 130355Z AUTO 19004KT 10SM CLR 09/08 A3008 RMK AO2 T00950080
KRWV 130455Z AUTO 00000KT 10SM CLR 10/08 A3008 RMK AO2 T00950082
KRWV 130555Z AUTO 25007KT 10SM CLR 07/07 A3007 RMK AO2 T00720070 10123 20068
KRWV 130655Z AUTO 23006KT 10SM SCT020 08/07 A3004 RMK AO2 T00790074
KRWV 130755Z AUTO 25008KT 10SM SCT019 09/08 A3003 RMK AO2 T00860081
KRWV 130855Z AUTO 25009KT 5SM BR OVC007 08/08 A3002 RMK AO2 T00840084
KRWV 130955Z AUTO 24006KT M1/4SM FG OVC003 10/ A3001 RMK AO2 T0097////
KRWV 131055Z AUTO 18005KT 1/4SM FG OVC003 10/ A2998 RMK AO2 T0102////
KRWV 131155Z AUTO 21007KT 3/4SM BR OVC003 11/ A2997 RMK AO2 T0114//// 10115 20072
KRWV 131255Z AUTO 20008KT 1/4SM FG OVC003 12/ A2997 RMK AO2 T0120////



Page loaded:  13:53 UTC  |   05:53 AM Pacific  |   06:53 AM Mountain  |   07:53 AM Central  |   08:53 AM Eastern

 

ADVISORIES

FORECASTS

FORECASTS

OBSERVATIONS

USER TOOLS

ABOUT US